createdAt,value
2023-04-17T00:02:19.602Z,9.33
2023-04-17T00:04:48.449Z,10.13
2023-04-17T00:07:16.501Z,9.90
2023-04-17T00:09:44.278Z,8.93
2023-04-17T00:12:12.207Z,11.07
2023-04-17T00:14:40.081Z,9.53
2023-04-17T00:17:07.670Z,9.50
2023-04-17T00:19:36.746Z,9.97
2023-04-17T00:22:04.318Z,9.50
2023-04-17T00:24:32.065Z,10.40
2023-04-17T00:26:59.764Z,14.07
2023-04-17T00:29:27.602Z,10.70
2023-04-17T00:31:55.546Z,10.13
2023-04-17T00:34:23.445Z,10.00
2023-04-17T00:36:52.837Z,9.87
2023-04-17T00:39:20.724Z,10.57
2023-04-17T00:41:48.645Z,9.63
2023-04-17T00:44:19.479Z,11.03
2023-04-17T00:46:47.642Z,9.60
2023-04-17T00:49:15.697Z,10.00
2023-04-17T00:51:43.743Z,11.03
2023-04-17T00:54:13.670Z,13.00
2023-04-17T00:56:42.779Z,10.30
2023-04-17T00:59:13.589Z,9.80
2023-04-17T01:01:41.873Z,9.93
2023-04-17T01:04:10.480Z,10.20
2023-04-17T01:06:38.549Z,9.80
2023-04-17T01:09:06.406Z,10.40
2023-04-17T01:11:36.297Z,10.40
2023-04-17T01:14:04.260Z,10.83
2023-04-17T01:16:32.265Z,11.67
2023-04-17T01:19:00.321Z,11.57
2023-04-17T01:21:28.271Z,10.87
2023-04-17T01:23:56.803Z,10.43
2023-04-17T01:26:27.252Z,11.43
2023-04-17T01:28:56.285Z,10.70
2023-04-17T01:31:24.565Z,11.57
2023-04-17T01:33:53.393Z,11.47
2023-04-17T01:36:22.709Z,10.87
2023-04-17T01:38:50.567Z,13.23
2023-04-17T01:41:18.370Z,12.33
2023-04-17T01:43:48.111Z,11.70
2023-04-17T01:46:16.044Z,11.23
2023-04-17T01:48:44.031Z,12.27
2023-04-17T01:51:11.968Z,12.77
2023-04-17T01:53:40.634Z,12.60
2023-04-17T01:56:09.308Z,13.07
2023-04-17T01:58:37.709Z,13.30
2023-04-17T02:01:07.698Z,14.10
2023-04-17T02:03:35.920Z,13.90
2023-04-17T02:06:03.912Z,14.80
2023-04-17T02:08:31.832Z,16.27
2023-04-17T02:10:59.859Z,16.17
2023-04-17T02:13:31.202Z,14.50
2023-04-17T02:15:59.058Z,14.70
2023-04-17T02:18:29.352Z,15.40
2023-04-17T02:20:56.944Z,17.30
2023-04-17T02:23:24.592Z,15.07
2023-04-17T02:25:52.208Z,16.60
2023-04-17T02:28:19.830Z,15.83
2023-04-17T02:30:47.457Z,17.20
2023-04-17T02:33:14.959Z,15.60
2023-04-17T02:35:43.897Z,14.97
2023-04-17T02:38:11.464Z,14.30
2023-04-17T02:40:39.066Z,16.03
2023-04-17T02:43:06.698Z,16.70
2023-04-17T02:45:34.212Z,16.83
2023-04-17T02:48:02.064Z,15.30
2023-04-17T02:50:29.653Z,16.87
2023-04-17T02:52:58.586Z,15.10
2023-04-17T02:55:26.404Z,16.17
2023-04-17T02:57:53.982Z,17.33
2023-04-17T03:00:22.017Z,17.43
2023-04-17T03:02:49.753Z,16.70
2023-04-17T03:05:20.264Z,16.83
2023-04-17T03:07:47.928Z,16.47
2023-04-17T03:10:17.056Z,16.03
2023-04-17T03:12:44.602Z,15.63
2023-04-17T03:15:12.496Z,15.97
2023-04-17T03:17:40.186Z,16.03
2023-04-17T03:20:09.316Z,16.67
2023-04-17T03:22:37.400Z,16.73
2023-04-17T03:25:05.777Z,18.43
2023-04-17T03:27:34.664Z,18.17
2023-04-17T03:30:02.263Z,16.37
2023-04-17T03:32:29.859Z,16.17
2023-04-17T03:34:57.472Z,17.63
2023-04-17T03:37:25.096Z,18.33
2023-04-17T03:39:52.682Z,15.67
2023-04-17T03:42:20.320Z,16.60
2023-04-17T03:44:49.269Z,20.57
2023-04-17T03:47:16.848Z,16.73
2023-04-17T03:49:44.508Z,18.87
2023-04-17T03:52:12.077Z,17.40
2023-04-17T03:54:39.670Z,19.20
2023-04-17T03:57:07.263Z,16.63
2023-04-17T03:59:34.786Z,23.03
2023-04-17T04:02:03.884Z,17.80
2023-04-17T04:04:31.684Z,17.93
2023-04-17T04:07:01.554Z,17.57
2023-04-17T04:09:29.147Z,17.80
2023-04-17T04:11:57.309Z,16.40
2023-04-17T04:14:25.075Z,17.73
2023-04-17T04:16:52.801Z,17.33
2023-04-17T04:19:21.739Z,17.17
2023-04-17T04:21:49.673Z,16.87
2023-04-17T04:24:17.570Z,18.13
2023-04-17T04:26:47.368Z,16.90
2023-04-17T04:29:14.992Z,19.53
2023-04-17T04:31:46.448Z,17.47
2023-04-17T04:34:16.879Z,18.90
2023-04-17T04:36:49.976Z,17.63
2023-04-17T04:39:21.787Z,18.90
2023-04-17T04:41:50.192Z,19.17
2023-04-17T04:44:18.283Z,18.77
2023-04-17T04:46:46.209Z,19.50
2023-04-17T04:49:14.313Z,17.43
2023-04-17T04:51:42.098Z,18.30
2023-04-17T04:54:11.062Z,18.73
2023-04-17T04:56:38.699Z,18.70
2023-04-17T04:59:06.289Z,18.37
2023-04-17T05:01:33.951Z,18.33
2023-04-17T05:04:01.812Z,19.03
2023-04-17T05:06:29.572Z,17.53
2023-04-17T05:08:57.169Z,17.73
2023-04-17T05:11:26.135Z,18.73
2023-04-17T05:13:55.851Z,18.10
2023-04-17T05:16:23.464Z,18.87
2023-04-17T05:18:51.116Z,18.53
2023-04-17T05:21:18.781Z,19.13
2023-04-17T05:23:46.405Z,18.43
2023-04-17T05:26:14.004Z,20.70
2023-04-17T05:28:45.362Z,18.70
2023-04-17T05:31:12.976Z,17.53
2023-04-17T05:33:40.726Z,19.83
2023-04-17T05:36:09.217Z,20.17
2023-04-17T05:38:36.844Z,19.83
2023-04-17T05:41:07.345Z,18.97
2023-04-17T05:43:35.070Z,19.07
2023-04-17T05:46:04.106Z,19.23
2023-04-17T05:48:32.148Z,20.50
2023-04-17T05:50:59.864Z,18.83
2023-04-17T05:53:27.623Z,20.07
2023-04-17T05:55:55.284Z,19.80
2023-04-17T05:58:24.494Z,18.90
2023-04-17T06:00:52.888Z,19.13
2023-04-17T06:03:22.143Z,19.13
2023-04-17T06:05:49.976Z,20.70
2023-04-17T06:08:17.596Z,19.80
2023-04-17T06:10:46.575Z,20.73
2023-04-17T06:13:14.394Z,18.17
2023-04-17T06:15:42.195Z,19.87
2023-04-17T06:18:09.875Z,18.63
2023-04-17T06:20:40.158Z,19.37
2023-04-17T06:23:07.978Z,21.13
2023-04-17T06:25:35.619Z,20.60
2023-04-17T06:28:03.736Z,19.80
2023-04-17T06:30:31.345Z,20.97
2023-04-17T06:32:58.991Z,21.53
2023-04-17T06:35:26.632Z,20.73
2023-04-17T06:37:55.609Z,19.30
2023-04-17T06:40:23.233Z,20.07
2023-04-17T06:42:50.847Z,20.27
2023-04-17T06:45:18.713Z,19.70
2023-04-17T06:47:47.095Z,19.67
2023-04-17T06:50:15.290Z,19.50
2023-04-17T06:52:43.758Z,19.77
2023-04-17T06:55:12.863Z,19.17
2023-04-17T06:57:40.642Z,20.73
2023-04-17T07:00:09.352Z,19.70
2023-04-17T07:02:37.137Z,18.87
2023-04-17T07:05:07.016Z,21.00
2023-04-17T07:07:36.002Z,19.50
2023-04-17T07:10:03.877Z,18.67
2023-04-17T07:12:32.924Z,19.07
2023-04-17T07:15:00.764Z,19.37
2023-04-17T07:17:28.533Z,16.50
2023-04-17T07:19:56.640Z,18.83
2023-04-17T07:22:25.378Z,18.07
2023-04-17T07:24:54.815Z,16.87
2023-04-17T07:27:22.511Z,16.63
2023-04-17T07:29:54.531Z,19.50
2023-04-17T07:32:24.173Z,15.90
2023-04-17T07:34:52.067Z,16.00
2023-04-17T07:37:19.922Z,16.07
2023-04-17T07:39:49.887Z,17.67
2023-04-17T07:42:17.550Z,15.30
2023-04-17T07:44:45.168Z,14.87
2023-04-17T07:47:14.262Z,15.37
2023-04-17T07:49:41.930Z,12.30
2023-04-17T07:52:09.539Z,13.17
2023-04-17T07:54:37.217Z,12.63
2023-04-17T07:57:05.141Z,12.57
2023-04-17T07:59:32.913Z,13.90
2023-04-17T08:02:00.758Z,12.50
2023-04-17T08:04:30.060Z,12.37
2023-04-17T08:06:57.793Z,13.43
2023-04-17T08:09:25.502Z,11.83
2023-04-17T08:11:57.645Z,12.67
2023-04-17T08:14:25.989Z,12.57
2023-04-17T08:16:53.779Z,12.93
2023-04-17T08:19:21.458Z,13.30
2023-04-17T08:21:51.779Z,13.23
2023-04-17T08:24:20.104Z,12.20
2023-04-17T08:26:48.592Z,15.33
2023-04-17T08:29:16.382Z,11.40
2023-04-17T08:31:44.254Z,12.10
2023-04-17T08:34:14.946Z,12.93
2023-04-17T08:36:43.395Z,12.83
2023-04-17T08:39:12.925Z,12.40
2023-04-17T08:41:45.206Z,12.00
2023-04-17T08:44:12.937Z,12.27
2023-04-17T08:46:40.864Z,11.93
2023-04-17T08:49:08.639Z,13.50
2023-04-17T08:51:36.537Z,10.70
2023-04-17T08:54:04.308Z,9.83
2023-04-17T08:56:33.408Z,9.93
2023-04-17T08:59:01.025Z,11.70
2023-04-17T09:01:29.964Z,9.33
2023-04-17T09:03:58.053Z,10.50
2023-04-17T09:06:25.879Z,8.33
2023-04-17T09:08:58.742Z,10.13
2023-04-17T09:11:26.948Z,9.73
2023-04-17T09:13:56.109Z,8.90
2023-04-17T09:16:25.582Z,8.60
2023-04-17T09:19:06.434Z,9.63
2023-04-17T09:21:34.007Z,9.00
2023-04-17T09:24:01.652Z,9.10
2023-04-17T09:26:33.183Z,10.20
2023-04-17T09:29:08.595Z,10.27
2023-04-17T09:31:37.483Z,11.70
2023-04-17T09:34:07.476Z,10.40
2023-04-17T09:36:36.821Z,11.20
2023-04-17T09:39:06.329Z,10.10
2023-04-17T09:41:36.332Z,11.67
2023-04-17T09:44:06.431Z,11.43
2023-04-17T09:46:39.122Z,11.17
2023-04-17T09:49:12.013Z,13.13
2023-04-17T09:51:39.915Z,11.37
2023-04-17T09:54:07.911Z,13.33
2023-04-17T09:56:37.720Z,13.37
2023-04-17T09:59:07.526Z,13.57
2023-04-17T10:01:37.835Z,14.10
2023-04-17T10:04:06.683Z,14.20
2023-04-17T10:06:36.006Z,13.37
2023-04-17T10:09:04.321Z,14.37
2023-04-17T10:11:36.185Z,13.30
2023-04-17T10:14:11.641Z,14.57
2023-04-17T10:16:41.525Z,13.20
2023-04-17T10:19:27.842Z,13.20
2023-04-17T10:22:29.573Z,14.93
2023-04-17T10:25:18.332Z,13.47
2023-04-17T10:27:48.059Z,13.93
2023-04-17T10:30:17.671Z,13.03
2023-04-17T10:32:47.040Z,14.23
2023-04-17T10:35:37.678Z,15.40
2023-04-17T10:38:07.071Z,16.10
2023-04-17T10:40:35.872Z,13.17
2023-04-17T10:43:05.314Z,16.40
2023-04-17T10:46:06.483Z,12.47
2023-04-17T10:48:36.037Z,12.33
2023-04-17T10:51:42.585Z,12.43
2023-04-17T10:54:13.549Z,13.40
2023-04-17T10:56:42.400Z,12.30
2023-04-17T10:59:11.323Z,14.03
2023-04-17T11:01:41.766Z,11.17
2023-04-17T11:04:10.530Z,11.97
2023-04-17T11:06:39.955Z,12.80
2023-04-17T11:09:10.381Z,11.40
2023-04-17T11:11:44.543Z,11.27
2023-04-17T11:14:15.209Z,11.33
2023-04-17T11:16:45.340Z,9.43
2023-04-17T11:19:14.398Z,10.27
2023-04-17T11:21:43.612Z,9.77
2023-04-17T11:24:11.256Z,9.60
2023-04-17T11:26:43.632Z,9.33
2023-04-17T11:29:15.406Z,10.13
2023-04-17T11:31:44.651Z,10.60
2023-04-17T11:34:12.564Z,8.63
2023-04-17T11:36:40.274Z,8.70
2023-04-17T11:39:08.250Z,9.37
2023-04-17T11:41:38.810Z,8.93
2023-04-17T11:44:09.939Z,9.80
2023-04-17T11:46:37.872Z,6.80
2023-04-17T11:49:06.973Z,11.20
2023-04-17T11:51:34.810Z,5.90
2023-04-17T11:54:02.428Z,6.37
2023-04-17T11:56:30.875Z,4.93
2023-04-17T11:59:00.169Z,6.20
2023-04-17T12:01:28.818Z,4.63
2023-04-17T12:03:57.848Z,4.20
2023-04-17T12:06:36.819Z,8.43
2023-04-17T12:09:06.390Z,3.40
2023-04-17T12:11:34.340Z,6.37
2023-04-17T12:14:02.400Z,4.00
2023-04-17T12:16:30.591Z,5.17
2023-04-17T12:18:58.609Z,5.43
2023-04-17T12:21:27.645Z,6.37
2023-04-17T12:23:55.269Z,4.50
2023-04-17T12:26:24.899Z,4.07
2023-04-17T12:28:52.678Z,4.37
2023-04-17T12:31:20.359Z,3.70
2023-04-17T12:33:47.949Z,3.33
2023-04-17T12:36:15.650Z,2.83
2023-04-17T12:38:44.642Z,2.50
2023-04-17T12:41:12.235Z,4.10
2023-04-17T12:43:39.809Z,3.27
2023-04-17T12:46:07.470Z,3.07
2023-04-17T12:48:35.128Z,5.23
2023-04-17T12:51:02.699Z,4.97
2023-04-17T12:53:30.494Z,5.73
2023-04-17T12:55:59.455Z,4.33
2023-04-17T12:58:27.070Z,3.70
2023-04-17T13:00:54.721Z,6.30
2023-04-17T13:03:22.469Z,5.03
2023-04-17T13:05:52.750Z,4.27
2023-04-17T13:08:20.354Z,5.27
2023-04-17T13:10:47.988Z,4.17
2023-04-17T13:13:17.188Z,4.63
2023-04-17T13:15:46.574Z,4.23
2023-04-17T13:18:14.325Z,3.43
2023-04-17T13:20:41.911Z,3.40
2023-04-17T13:23:11.813Z,3.20
2023-04-17T13:25:39.432Z,4.83
2023-04-17T13:28:07.030Z,3.90
2023-04-17T13:30:37.141Z,3.73
2023-04-17T13:33:05.169Z,6.20
2023-04-17T13:35:32.951Z,3.60
2023-04-17T13:38:02.252Z,4.00
2023-04-17T13:40:30.095Z,3.77
2023-04-17T13:42:58.390Z,4.53
2023-04-17T13:45:26.128Z,4.97
2023-04-17T13:47:55.179Z,3.83
2023-04-17T13:50:22.905Z,5.57
2023-04-17T13:52:50.908Z,4.07
2023-04-17T13:55:18.720Z,3.13
2023-04-17T13:57:46.318Z,4.20
2023-04-17T14:00:15.205Z,3.83
2023-04-17T14:02:43.083Z,4.30
2023-04-17T14:05:12.297Z,7.40
2023-04-17T14:07:39.959Z,6.33
2023-04-17T14:10:09.200Z,7.33
2023-04-17T14:12:37.096Z,4.90
2023-04-17T14:15:06.427Z,3.30
2023-04-17T14:17:34.401Z,5.57
2023-04-17T14:20:02.069Z,4.13
2023-04-17T14:22:31.031Z,3.80
2023-04-17T14:24:58.648Z,3.97
2023-04-17T14:27:26.357Z,3.63
2023-04-17T14:29:53.943Z,4.93
2023-04-17T14:32:21.601Z,4.10
2023-04-17T14:34:49.286Z,3.80
2023-04-17T14:37:16.873Z,4.97
2023-04-17T14:39:45.833Z,5.40
2023-04-17T14:42:13.413Z,5.23
2023-04-17T14:44:43.208Z,5.13
2023-04-17T14:47:11.001Z,6.20
2023-04-17T14:49:38.778Z,6.67
2023-04-17T14:52:06.756Z,8.27
2023-04-17T14:54:34.714Z,4.33
2023-04-17T14:57:03.881Z,5.03
2023-04-17T14:59:31.831Z,3.40
2023-04-17T15:01:59.724Z,5.03
2023-04-17T15:04:27.687Z,3.37
2023-04-17T15:06:55.414Z,5.40
2023-04-17T15:09:23.038Z,3.63
2023-04-17T15:11:50.735Z,2.90
2023-04-17T15:14:20.147Z,3.63
2023-04-17T15:16:47.712Z,4.50
2023-04-17T15:19:15.348Z,6.13
2023-04-17T15:21:43.141Z,3.37
2023-04-17T15:24:10.675Z,3.80
2023-04-17T15:26:38.355Z,4.47
2023-04-17T15:29:05.943Z,4.03
2023-04-17T15:31:34.886Z,3.70
2023-04-17T15:34:02.495Z,5.47
2023-04-17T15:36:32.232Z,4.77
2023-04-17T15:38:59.782Z,3.60
2023-04-17T15:41:27.648Z,5.00
2023-04-17T15:43:55.287Z,6.20
2023-04-17T15:46:23.094Z,4.67
2023-04-17T15:49:04.857Z,4.57
2023-04-17T15:51:35.642Z,3.77
2023-04-17T15:54:03.289Z,4.97
2023-04-17T15:56:30.890Z,3.40
2023-04-17T15:58:58.477Z,3.20
2023-04-17T16:01:26.413Z,3.60
2023-04-17T16:03:55.778Z,3.57
2023-04-17T16:06:23.523Z,6.67
2023-04-17T16:08:51.121Z,3.80
2023-04-17T16:11:18.740Z,3.60
2023-04-17T16:13:46.287Z,4.20
2023-04-17T16:16:13.989Z,4.60
2023-04-17T16:18:41.677Z,6.63
2023-04-17T16:21:12.433Z,4.43
2023-04-17T16:23:40.085Z,4.10
2023-04-17T16:26:07.758Z,5.17
2023-04-17T16:28:35.486Z,5.87
2023-04-17T16:31:03.185Z,4.47
2023-04-17T16:33:30.755Z,5.80
2023-04-17T16:35:58.309Z,4.80
2023-04-17T16:38:27.579Z,6.90
2023-04-17T16:40:57.020Z,3.80
2023-04-17T16:43:24.592Z,5.33
2023-04-17T16:45:52.250Z,3.90
2023-04-17T16:48:19.951Z,6.07
2023-04-17T16:50:47.561Z,4.17
2023-04-17T16:53:15.245Z,5.00
2023-04-17T16:55:44.141Z,4.57
2023-04-17T16:58:11.742Z,3.80
2023-04-17T17:00:39.465Z,4.33
2023-04-17T17:03:07.365Z,3.83
2023-04-17T17:05:35.088Z,4.33
2023-04-17T17:08:02.673Z,9.60
2023-04-17T17:10:30.392Z,4.23
2023-04-17T17:12:59.304Z,4.70
2023-04-17T17:15:26.921Z,4.73
2023-04-17T17:17:54.455Z,6.37
2023-04-17T17:20:22.092Z,4.57
2023-04-17T17:22:49.647Z,3.37
2023-04-17T17:25:17.409Z,4.60
2023-04-17T17:27:44.982Z,4.90
2023-04-17T17:30:15.175Z,5.47
2023-04-17T17:32:42.910Z,4.60
2023-04-17T17:35:11.026Z,4.80
2023-04-17T17:37:38.565Z,4.40
2023-04-17T17:40:07.549Z,4.30
2023-04-17T17:42:35.312Z,5.50
2023-04-17T17:45:03.074Z,5.33
2023-04-17T17:47:32.234Z,6.73
2023-04-17T17:49:59.844Z,4.67
2023-04-17T17:52:27.408Z,6.17
2023-04-17T17:54:55.017Z,4.30
2023-04-17T17:57:22.815Z,4.23
2023-04-17T17:59:50.395Z,4.07
2023-04-17T18:02:18.194Z,5.33
2023-04-17T18:04:47.354Z,3.77
2023-04-17T18:07:15.187Z,3.63
2023-04-17T18:09:42.723Z,6.53
2023-04-17T18:12:10.286Z,6.03
2023-04-17T18:14:38.224Z,6.50
2023-04-17T18:17:06.155Z,4.63
2023-04-17T18:19:34.024Z,6.33
2023-04-17T18:22:02.949Z,4.20
2023-04-17T18:24:31.684Z,4.23
2023-04-17T18:26:59.297Z,6.17
2023-04-17T18:29:26.916Z,5.00
2023-04-17T18:31:54.778Z,5.43
2023-04-17T18:34:23.252Z,4.57
2023-04-17T18:36:51.026Z,4.50
2023-04-17T18:39:20.513Z,5.27
2023-04-17T18:41:48.393Z,6.17
2023-04-17T18:44:16.070Z,4.70
2023-04-17T18:46:43.684Z,5.33
2023-04-17T18:49:11.304Z,5.47
2023-04-17T18:51:38.857Z,5.17
2023-04-17T18:54:08.508Z,5.20
2023-04-17T18:56:37.485Z,7.00
2023-04-17T18:59:05.174Z,6.43
2023-04-17T19:01:32.812Z,5.60
2023-04-17T19:04:00.444Z,4.67
2023-04-17T19:06:28.009Z,6.50
2023-04-17T19:08:56.846Z,5.20
2023-04-17T19:11:24.573Z,7.17
2023-04-17T19:13:53.533Z,5.70
2023-04-17T19:16:21.275Z,7.13
2023-04-17T19:18:49.024Z,4.17
2023-04-17T19:21:17.075Z,7.50
2023-04-17T19:23:44.753Z,7.07
2023-04-17T19:26:15.180Z,7.53
2023-04-17T19:28:43.050Z,5.90
2023-04-17T19:31:12.589Z,4.87
2023-04-17T19:33:40.386Z,5.30
2023-04-17T19:36:08.080Z,5.33
2023-04-17T19:38:37.491Z,6.80
2023-04-17T19:41:17.099Z,5.33
2023-04-17T19:43:44.846Z,4.57
2023-04-17T19:46:14.783Z,5.70
2023-04-17T19:48:43.603Z,5.20
2023-04-17T19:51:11.632Z,6.57
2023-04-17T19:53:40.383Z,5.30
2023-04-17T19:56:09.269Z,11.20
2023-04-17T19:58:37.148Z,7.73
2023-04-17T20:01:05.489Z,5.70
2023-04-17T20:03:35.440Z,5.23
2023-04-17T20:06:03.547Z,5.53
2023-04-17T20:08:31.403Z,6.50
2023-04-17T20:10:58.937Z,8.00
2023-04-17T20:13:27.840Z,5.67
2023-04-17T20:15:55.466Z,8.00
2023-04-17T20:18:23.302Z,9.03
2023-04-17T20:20:52.229Z,7.87
2023-04-17T20:23:20.055Z,9.70
2023-04-17T20:25:48.179Z,6.87
2023-04-17T20:28:16.376Z,6.73
2023-04-17T20:30:44.116Z,7.43
2023-04-17T20:33:12.015Z,5.60
2023-04-17T20:35:40.071Z,7.53
2023-04-17T20:38:10.000Z,5.90
2023-04-17T20:40:38.000Z,5.40
2023-04-17T20:43:05.913Z,7.10
2023-04-17T20:45:33.759Z,6.13
2023-04-17T20:48:01.896Z,5.73
2023-04-17T20:50:29.999Z,9.13
2023-04-17T20:52:57.772Z,8.63
2023-04-17T20:55:27.172Z,7.70
2023-04-17T20:57:55.226Z,5.73
2023-04-17T21:00:23.086Z,7.63
2023-04-17T21:02:50.998Z,6.40
2023-04-17T21:05:19.257Z,7.77
2023-04-17T21:07:48.135Z,6.37
2023-04-17T21:10:17.518Z,7.57
2023-04-17T21:12:46.480Z,7.77
2023-04-17T21:15:14.364Z,11.27
2023-04-17T21:17:46.112Z,6.90
2023-04-17T21:20:14.284Z,9.90
2023-04-17T21:22:42.168Z,10.07
2023-04-17T21:25:11.251Z,8.50
2023-04-17T21:27:39.199Z,6.90
2023-04-17T21:30:10.635Z,7.47
2023-04-17T21:32:40.207Z,9.13
2023-04-17T21:35:08.651Z,6.53
2023-04-17T21:37:37.040Z,8.97
2023-04-17T21:40:05.626Z,6.27
2023-04-17T21:42:33.657Z,7.13
2023-04-17T21:45:01.475Z,8.73
2023-04-17T21:47:30.727Z,8.73
2023-04-17T21:50:00.460Z,9.47
2023-04-17T21:52:28.297Z,5.73
2023-04-17T21:55:02.716Z,11.63
2023-04-17T21:57:30.729Z,6.97
2023-04-17T21:59:58.831Z,6.80
2023-04-17T22:02:27.078Z,7.77
2023-04-17T22:04:56.625Z,6.03
2023-04-17T22:07:24.601Z,7.17
2023-04-17T22:09:52.260Z,7.00
2023-04-17T22:12:20.584Z,7.90
2023-04-17T22:14:48.672Z,7.23
2023-04-17T22:17:16.668Z,6.27
2023-04-17T22:19:44.603Z,6.00
2023-04-17T22:22:14.113Z,7.17
2023-04-17T22:24:42.891Z,7.53
2023-04-17T22:27:10.744Z,8.60
2023-04-17T22:29:38.655Z,8.63
2023-04-17T22:32:06.746Z,7.63
2023-04-17T22:34:34.324Z,6.93
2023-04-17T22:37:02.163Z,7.80
2023-04-17T22:39:31.597Z,7.20
2023-04-17T22:41:59.330Z,7.07
2023-04-17T22:44:27.060Z,10.07
2023-04-17T22:46:54.874Z,6.60
2023-04-17T22:49:22.702Z,8.30
2023-04-17T22:51:51.212Z,7.33
2023-04-17T22:54:22.853Z,7.33
2023-04-17T22:56:52.104Z,8.00
2023-04-17T22:59:19.716Z,9.07
2023-04-17T23:01:47.440Z,6.87
2023-04-17T23:04:15.326Z,7.30
2023-04-17T23:06:43.183Z,10.13
2023-04-17T23:09:11.135Z,10.87
2023-04-17T23:11:38.711Z,10.00
2023-04-17T23:14:07.694Z,7.47
2023-04-17T23:16:35.298Z,10.10
2023-04-17T23:19:03.305Z,8.37
2023-04-17T23:21:31.020Z,9.03
2023-04-17T23:23:58.601Z,6.83
2023-04-17T23:26:26.266Z,6.07
2023-04-17T23:28:53.909Z,10.60
2023-04-17T23:31:22.974Z,6.90
2023-04-17T23:33:50.646Z,7.47
2023-04-17T23:36:18.248Z,7.47
2023-04-17T23:38:45.786Z,8.30
2023-04-17T23:41:13.368Z,11.10
2023-04-17T23:43:40.972Z,7.20
2023-04-17T23:46:10.184Z,6.53
2023-04-17T23:48:39.150Z,8.67
2023-04-17T23:51:06.755Z,7.97
2023-04-17T23:53:34.381Z,8.90
2023-04-17T23:56:02.050Z,8.13
2023-04-17T23:58:29.639Z,9.37
